Rae, Canada
Current Conditions -  °F | °C
As of 3:00 AM on Wednesday 26 Nov 2014 (Local Time) from CYZF Reporting Station
Broken Clouds Broken Clouds  
Wind Chill: -23°   Ceiling: 9800
Heat Index: -9°   Visibility: 15mi
Dew Point: -15°   Wind: 6mph
Humidity: 77%   Direction: 250°WSW
Pressure: 30.15"   Gusts: NA
Location:  62.83°N, 116.04°W
Report Text: CYZF 261000Z 25005KT 15SM BKN098 M23/M26 A3015 RMK AC5 SLP240
Loading
Personal Weather Stations






























Interactive Weather Map New forecast layout! Learn more

10-Day Weather Forecast

Advertisements
Track Severe Weather on mobile